createdAt,value
2022-12-23T00:01:05.215Z,107.35
2022-12-23T00:04:08.862Z,99.00
2022-12-23T00:07:11.349Z,96.13
2022-12-23T00:10:14.010Z,98.20
2022-12-23T00:13:35.691Z,103.00
2022-12-23T00:16:38.711Z,94.05
2022-12-23T00:19:41.246Z,93.97
2022-12-23T00:23:02.688Z,108.73
2022-12-23T00:26:06.211Z,93.35
2022-12-23T00:29:09.509Z,99.03
2022-12-23T00:32:12.072Z,99.67
2022-12-23T00:35:14.552Z,96.03
2022-12-23T00:38:38.173Z,92.05
2022-12-23T00:41:59.568Z,93.38
2022-12-23T00:45:15.874Z,86.32
2022-12-23T00:48:36.817Z,90.67
2022-12-23T00:51:39.360Z,101.25
2022-12-23T00:54:42.083Z,107.07
2022-12-23T00:57:44.591Z,94.50
2022-12-23T01:01:06.397Z,83.63
2022-12-23T01:04:31.828Z,88.00
2022-12-23T01:07:34.305Z,90.10
2022-12-23T01:10:48.256Z,89.93
2022-12-23T01:13:50.856Z,89.37
2022-12-23T01:16:53.404Z,90.72
2022-12-23T01:19:56.034Z,90.55
2022-12-23T01:22:59.563Z,88.57
2022-12-23T01:26:07.004Z,91.63
2022-12-23T01:29:09.505Z,90.93
2022-12-23T01:32:11.997Z,86.22
2022-12-23T01:35:14.578Z,83.67
2022-12-23T01:38:17.901Z,83.50
2022-12-23T01:41:42.177Z,92.03
2022-12-23T01:44:57.965Z,73.25
2022-12-23T01:48:38.881Z,79.77
2022-12-23T01:51:41.828Z,79.87
2022-12-23T01:54:45.360Z,82.22
2022-12-23T01:57:48.579Z,74.30
2022-12-23T02:01:10.902Z,78.77
2022-12-23T02:04:17.584Z,72.97
2022-12-23T02:07:39.702Z,70.85
2022-12-23T02:11:06.296Z,74.05
2022-12-23T02:15:04.650Z,75.57
2022-12-23T02:18:33.695Z,75.00
2022-12-23T02:22:05.012Z,70.70
2022-12-23T02:25:27.911Z,81.15
2022-12-23T02:28:51.455Z,73.53
2022-12-23T02:32:08.907Z,80.17
2022-12-23T02:35:18.238Z,78.50
2022-12-23T02:38:38.067Z,71.57
2022-12-23T02:41:48.182Z,75.00
2022-12-23T02:45:14.503Z,68.40
2022-12-23T02:48:28.981Z,70.68
2022-12-23T02:51:36.740Z,74.53
2022-12-23T02:54:45.434Z,75.22
2022-12-23T02:57:51.174Z,70.97
2022-12-23T03:00:55.611Z,69.18
2022-12-23T03:03:58.288Z,75.22
2022-12-23T03:07:07.447Z,74.73
2022-12-23T03:10:23.970Z,76.07
2022-12-23T03:13:57.219Z,67.80
2022-12-23T03:17:31.202Z,80.03
2022-12-23T03:20:56.810Z,82.50
2022-12-23T03:24:02.174Z,92.77
2022-12-23T03:27:36.302Z,88.63
2022-12-23T03:30:43.136Z,88.15
2022-12-23T03:33:52.010Z,93.60
2022-12-23T03:36:58.986Z,93.82
2022-12-23T03:40:10.694Z,94.93
2022-12-23T03:43:37.104Z,95.38
2022-12-23T03:46:46.688Z,92.37
2022-12-23T03:50:03.159Z,106.95
2022-12-23T03:53:12.940Z,94.10
2022-12-23T03:56:21.812Z,93.83
2022-12-23T03:59:31.799Z,88.17
2022-12-23T04:02:46.366Z,116.70
2022-12-23T04:05:55.802Z,108.72
2022-12-23T04:08:59.113Z,127.43
2022-12-23T04:12:01.722Z,107.07
2022-12-23T04:15:09.110Z,145.70
2022-12-23T04:18:16.426Z,122.05
2022-12-23T04:21:19.233Z,139.03
2022-12-23T04:24:21.782Z,143.10
2022-12-23T04:27:24.186Z,128.63
2022-12-23T04:30:33.961Z,167.25
2022-12-23T04:33:37.040Z,136.93
2022-12-23T04:36:39.572Z,156.33
2022-12-23T04:39:42.121Z,202.30
2022-12-23T04:42:44.610Z,189.13
2022-12-23T04:45:51.388Z,165.77
2022-12-23T04:48:53.854Z,200.40
2022-12-23T04:51:56.352Z,163.60
2022-12-23T04:54:58.804Z,182.38
2022-12-23T04:58:01.288Z,179.00
2022-12-23T05:01:10.071Z,190.02
2022-12-23T05:04:12.776Z,203.18
2022-12-23T05:07:15.300Z,190.60
2022-12-23T05:10:17.879Z,176.27
2022-12-23T05:13:20.632Z,192.70
2022-12-23T05:16:24.084Z,165.55
2022-12-23T05:19:26.859Z,173.00
2022-12-23T05:22:29.357Z,170.60
2022-12-23T05:25:36.659Z,198.57
2022-12-23T05:28:39.158Z,195.18
2022-12-23T05:31:41.949Z,175.67
2022-12-23T05:34:44.426Z,163.20
2022-12-23T05:37:46.890Z,164.45
2022-12-23T05:40:51.582Z,193.73
2022-12-23T05:43:54.151Z,184.83
2022-12-23T05:46:56.541Z,172.73
2022-12-23T05:49:59.025Z,126.05
2022-12-23T05:53:01.543Z,177.68
2022-12-23T05:56:05.660Z,176.73
2022-12-23T05:59:08.229Z,160.70
2022-12-23T06:02:11.180Z,175.75
2022-12-23T06:05:14.147Z,151.30
2022-12-23T06:08:16.754Z,126.13
2022-12-23T06:11:19.423Z,129.95
2022-12-23T06:14:28.325Z,141.35
2022-12-23T06:17:31.371Z,127.20
2022-12-23T06:20:34.987Z,127.18
2022-12-23T06:23:37.565Z,167.15
2022-12-23T06:26:40.049Z,144.70
2022-12-23T06:29:42.699Z,114.07
2022-12-23T06:32:45.356Z,152.70
2022-12-23T06:35:47.852Z,118.65
2022-12-23T06:38:50.295Z,154.33
2022-12-23T06:41:52.863Z,109.95
2022-12-23T06:44:55.358Z,124.55
2022-12-23T06:47:57.761Z,122.65
2022-12-23T06:51:02.364Z,95.67
2022-12-23T06:54:04.932Z,97.70
2022-12-23T06:57:07.454Z,81.60
2022-12-23T07:00:10.718Z,82.93
2022-12-23T07:03:13.414Z,99.40
2022-12-23T07:06:16.446Z,101.18
2022-12-23T07:09:19.065Z,102.90
2022-12-23T07:12:21.612Z,103.47
2022-12-23T07:15:24.199Z,95.25
2022-12-23T07:18:26.825Z,92.60
2022-12-23T07:21:30.151Z,87.67
2022-12-23T07:24:33.020Z,111.33
2022-12-23T07:27:35.491Z,101.32
2022-12-23T07:30:41.818Z,81.53
2022-12-23T07:33:44.662Z,104.03
2022-12-23T07:36:47.084Z,84.20
2022-12-23T07:39:49.800Z,84.03
2022-12-23T07:42:59.056Z,94.50
2022-12-23T07:46:09.509Z,85.30
2022-12-23T07:49:12.131Z,68.90
2022-12-23T07:52:14.969Z,73.43
2022-12-23T07:55:17.752Z,106.00
2022-12-23T07:58:20.186Z,87.43
2022-12-23T08:01:22.978Z,67.80
2022-12-23T08:04:25.458Z,63.78
2022-12-23T08:07:28.063Z,65.43
2022-12-23T08:10:30.781Z,76.47
2022-12-23T08:13:35.298Z,66.25
2022-12-23T08:16:43.351Z,73.10
2022-12-23T08:19:46.791Z,63.13
2022-12-23T08:22:49.441Z,73.03
2022-12-23T08:26:11.144Z,76.63
2022-12-23T08:29:13.556Z,58.65
2022-12-23T08:32:16.183Z,50.43
2022-12-23T08:35:18.599Z,62.25
2022-12-23T08:38:21.101Z,59.92
2022-12-23T08:41:28.162Z,59.53
2022-12-23T08:44:32.698Z,59.33
2022-12-23T08:47:35.151Z,56.08
2022-12-23T08:50:39.351Z,57.55
2022-12-23T08:53:41.955Z,59.27
2022-12-23T08:56:44.957Z,59.67
2022-12-23T08:59:47.757Z,62.83
2022-12-23T09:02:50.474Z,73.60
2022-12-23T09:05:52.954Z,66.53
2022-12-23T09:08:56.069Z,61.33
2022-12-23T09:11:58.551Z,61.95
2022-12-23T09:15:01.029Z,50.10
2022-12-23T09:18:03.539Z,60.92
2022-12-23T09:21:09.041Z,60.30
2022-12-23T09:24:11.656Z,55.22
2022-12-23T09:27:14.075Z,52.30
2022-12-23T09:30:16.993Z,53.60
2022-12-23T09:33:19.912Z,55.00
2022-12-23T09:36:23.059Z,61.07
2022-12-23T09:39:25.804Z,59.78
2022-12-23T09:42:48.074Z,60.30
2022-12-23T09:46:09.611Z,65.47
2022-12-23T09:49:15.387Z,60.97
2022-12-23T09:52:27.364Z,64.93
2022-12-23T09:55:57.480Z,59.90
2022-12-23T09:59:13.543Z,55.88
2022-12-23T10:02:28.814Z,76.87
2022-12-23T10:05:50.261Z,78.63
2022-12-23T10:08:58.531Z,96.63
2022-12-23T10:12:22.330Z,77.80
2022-12-23T10:15:48.101Z,70.95
2022-12-23T10:19:08.927Z,62.45
2022-12-23T10:22:25.138Z,59.72
2022-12-23T10:25:37.604Z,63.37
2022-12-23T10:28:40.007Z,63.20
2022-12-23T10:31:56.756Z,54.15
2022-12-23T10:35:15.831Z,60.80
2022-12-23T10:38:42.958Z,60.47
2022-12-23T10:42:27.913Z,53.03
2022-12-23T10:46:01.440Z,48.22
2022-12-23T10:49:12.540Z,52.27
2022-12-23T10:52:23.542Z,60.83
2022-12-23T10:55:33.865Z,57.17
2022-12-23T10:58:43.831Z,49.40
2022-12-23T11:01:52.780Z,54.80
2022-12-23T11:04:55.373Z,61.47
2022-12-23T11:07:58.726Z,66.50
2022-12-23T11:11:02.312Z,67.80
2022-12-23T11:14:04.865Z,69.22
2022-12-23T11:17:34.507Z,66.78
2022-12-23T11:20:44.975Z,56.58
2022-12-23T11:23:47.525Z,66.00
2022-12-23T11:27:04.471Z,57.43
2022-12-23T11:30:20.052Z,60.63
2022-12-23T11:33:34.293Z,55.08
2022-12-23T11:36:36.745Z,54.53
2022-12-23T11:39:39.674Z,63.63
2022-12-23T11:42:42.786Z,58.60
2022-12-23T11:45:45.347Z,63.10
2022-12-23T11:48:54.436Z,59.47
2022-12-23T11:52:06.147Z,65.53
2022-12-23T11:55:24.262Z,66.10
2022-12-23T11:58:29.608Z,73.97
2022-12-23T12:01:32.795Z,67.13
2022-12-23T12:04:36.307Z,62.97
2022-12-23T12:07:43.419Z,65.47
2022-12-23T12:10:46.187Z,70.55
2022-12-23T12:13:52.355Z,66.13
2022-12-23T12:17:05.991Z,73.83
2022-12-23T12:20:19.216Z,58.90
2022-12-23T12:23:28.590Z,58.33
2022-12-23T12:26:34.707Z,58.30
2022-12-23T12:30:01.081Z,65.85
2022-12-23T12:33:33.908Z,69.57
2022-12-23T12:37:25.540Z,68.10
2022-12-23T12:40:40.980Z,61.53
2022-12-23T12:44:00.544Z,69.35
2022-12-23T12:47:54.424Z,76.25
2022-12-23T12:51:36.336Z,79.90
2022-12-23T12:55:13.597Z,75.37
2022-12-23T12:58:20.283Z,65.25
2022-12-23T13:01:31.052Z,74.13
2022-12-23T13:04:42.541Z,66.70
2022-12-23T13:08:22.587Z,60.10
2022-12-23T13:12:06.491Z,68.30
2022-12-23T13:15:11.565Z,68.18
2022-12-23T13:18:58.330Z,60.33
2022-12-23T13:22:06.954Z,65.83
2022-12-23T13:25:20.019Z,65.50
2022-12-23T13:28:44.556Z,65.70
2022-12-23T13:32:22.854Z,56.37
2022-12-23T13:35:43.612Z,54.43
2022-12-23T13:38:59.792Z,49.30
2022-12-23T13:42:06.123Z,54.13
2022-12-23T13:45:15.449Z,50.70
2022-12-23T13:48:39.450Z,49.53
2022-12-23T13:52:20.953Z,50.65
2022-12-23T13:55:35.423Z,48.85
2022-12-23T13:58:40.342Z,43.97
2022-12-23T14:01:46.907Z,38.53
2022-12-23T14:04:55.497Z,44.45
2022-12-23T14:08:00.252Z,49.50
2022-12-23T14:11:12.699Z,38.80
2022-12-23T14:14:22.525Z,45.27
2022-12-23T14:17:39.320Z,42.80
2022-12-23T14:21:19.234Z,39.17
2022-12-23T14:24:43.201Z,45.55
2022-12-23T14:27:56.687Z,42.53
2022-12-23T14:31:05.433Z,50.65
2022-12-23T14:34:28.929Z,39.85
2022-12-23T14:37:33.708Z,39.50
2022-12-23T14:40:38.041Z,41.10
2022-12-23T14:43:46.206Z,43.03
2022-12-23T14:46:48.861Z,44.40
2022-12-23T14:49:51.787Z,39.28
2022-12-23T14:53:22.983Z,44.30
2022-12-23T14:56:40.796Z,47.33
2022-12-23T15:00:04.389Z,49.03
2022-12-23T15:03:11.523Z,53.05
2022-12-23T15:06:19.287Z,55.47
2022-12-23T15:09:27.925Z,57.40
2022-12-23T15:12:33.757Z,56.67
2022-12-23T15:15:36.513Z,70.70
2022-12-23T15:18:52.486Z,66.68
2022-12-23T15:22:20.708Z,70.13
2022-12-23T15:25:35.617Z,72.57
2022-12-23T15:28:41.232Z,70.00
2022-12-23T15:31:56.701Z,71.50
2022-12-23T15:35:06.729Z,76.70
2022-12-23T15:38:15.617Z,78.27
2022-12-23T15:41:18.827Z,77.93
2022-12-23T15:44:23.910Z,71.70
2022-12-23T15:47:32.213Z,63.75
2022-12-23T15:50:42.094Z,70.57
2022-12-23T15:53:47.595Z,76.33
2022-12-23T15:56:53.508Z,102.85
2022-12-23T15:59:58.670Z,78.57
2022-12-23T16:03:03.375Z,76.13
2022-12-23T16:06:33.071Z,73.00
2022-12-23T16:09:40.302Z,78.80
2022-12-23T16:12:43.886Z,81.80
2022-12-23T16:15:47.035Z,77.35
2022-12-23T16:18:49.599Z,65.63
2022-12-23T16:21:52.148Z,72.63
2022-12-23T16:25:17.133Z,80.65
2022-12-23T16:28:24.352Z,84.88
2022-12-23T16:31:27.321Z,81.05
2022-12-23T16:34:31.130Z,77.87
2022-12-23T16:37:33.544Z,79.30
2022-12-23T16:40:36.777Z,78.63
2022-12-23T16:43:44.548Z,73.30
2022-12-23T16:46:52.267Z,83.50
2022-12-23T16:49:54.796Z,75.88
2022-12-23T16:52:57.243Z,84.78
2022-12-23T16:56:01.023Z,98.78
2022-12-23T16:59:04.501Z,81.10
2022-12-23T17:02:20.738Z,85.45
2022-12-23T17:05:24.147Z,87.05
2022-12-23T17:08:26.591Z,89.40
2022-12-23T17:11:36.070Z,94.53
2022-12-23T17:14:38.878Z,88.88
2022-12-23T17:17:41.448Z,90.88
2022-12-23T17:20:47.746Z,87.03
2022-12-23T17:23:57.488Z,90.43
2022-12-23T17:26:59.970Z,85.50
2022-12-23T17:30:02.653Z,72.45
2022-12-23T17:33:05.704Z,70.57
2022-12-23T17:36:11.113Z,66.35
2022-12-23T17:39:13.769Z,79.13
2022-12-23T17:42:24.916Z,76.03
2022-12-23T17:45:31.105Z,72.70
2022-12-23T17:48:33.603Z,68.10
2022-12-23T17:51:36.281Z,60.10
2022-12-23T17:54:39.783Z,67.18
2022-12-23T17:57:42.231Z,77.90
2022-12-23T18:00:47.653Z,70.35
2022-12-23T18:03:50.999Z,69.23
2022-12-23T18:06:53.532Z,94.37
2022-12-23T18:09:55.972Z,92.00
2022-12-23T18:13:01.693Z,96.22
2022-12-23T18:16:04.240Z,98.32
2022-12-23T18:19:15.327Z,77.67
2022-12-23T18:22:20.429Z,96.75
2022-12-23T18:25:25.561Z,99.20
2022-12-23T18:28:28.105Z,114.00
2022-12-23T18:31:31.111Z,98.33
2022-12-23T18:34:33.774Z,136.23
2022-12-23T18:37:36.229Z,133.18
2022-12-23T18:40:40.176Z,159.50
2022-12-23T18:43:42.806Z,98.47
2022-12-23T18:46:45.448Z,133.73
2022-12-23T18:49:48.033Z,139.70
2022-12-23T18:52:50.761Z,116.13
2022-12-23T18:55:54.375Z,88.45
2022-12-23T18:58:56.915Z,131.00
2022-12-23T19:02:00.160Z,145.60
2022-12-23T19:05:02.748Z,135.70
2022-12-23T19:08:05.323Z,102.53
2022-12-23T19:11:20.526Z,76.50
2022-12-23T19:14:23.429Z,97.33
2022-12-23T19:17:25.924Z,109.03
2022-12-23T19:20:28.523Z,125.10
2022-12-23T19:23:31.128Z,71.45
2022-12-23T19:26:33.688Z,93.10
2022-12-23T19:29:36.243Z,114.68
2022-12-23T19:32:38.648Z,86.78
2022-12-23T19:35:42.243Z,95.77
2022-12-23T19:38:45.460Z,98.03
2022-12-23T19:41:48.103Z,80.68
2022-12-23T19:44:50.544Z,107.97
2022-12-23T19:47:53.535Z,108.20
2022-12-23T19:51:01.268Z,100.77
2022-12-23T19:54:03.824Z,66.38
2022-12-23T19:57:06.357Z,118.30
2022-12-23T20:00:09.554Z,119.03
2022-12-23T20:03:15.018Z,121.17
2022-12-23T20:06:23.538Z,132.02
2022-12-23T20:09:26.029Z,113.70
2022-12-23T20:12:28.570Z,137.52
2022-12-23T20:15:31.209Z,100.73
2022-12-23T20:18:33.872Z,111.28
2022-12-23T20:21:37.528Z,98.63
2022-12-23T20:24:40.152Z,76.13
2022-12-23T20:27:42.723Z,90.20
2022-12-23T20:30:48.250Z,130.52
2022-12-23T20:33:51.977Z,115.30
2022-12-23T20:36:54.395Z,149.27
2022-12-23T20:39:56.951Z,141.20
2022-12-23T20:42:59.566Z,135.77
2022-12-23T20:46:02.957Z,139.02
2022-12-23T20:49:05.553Z,120.13
2022-12-23T20:52:08.231Z,133.23
2022-12-23T20:55:10.644Z,133.65
2022-12-23T20:58:32.079Z,109.47
2022-12-23T21:01:38.175Z,141.90
2022-12-23T21:04:40.873Z,123.90
2022-12-23T21:07:43.321Z,84.40
2022-12-23T21:10:53.547Z,113.07
2022-12-23T21:14:01.138Z,106.28
2022-12-23T21:17:06.634Z,111.73
2022-12-23T21:20:09.367Z,97.03
2022-12-23T21:23:13.615Z,112.78
2022-12-23T21:26:19.225Z,106.72
2022-12-23T21:29:22.016Z,131.57
2022-12-23T21:32:24.597Z,87.97
2022-12-23T21:35:27.106Z,88.75
2022-12-23T21:38:38.441Z,64.68
2022-12-23T21:41:42.401Z,66.63
2022-12-23T21:44:44.942Z,67.35
2022-12-23T21:47:47.334Z,50.63
2022-12-23T21:50:54.813Z,49.05
2022-12-23T21:53:58.991Z,43.77
2022-12-23T21:57:01.423Z,45.80
2022-12-23T22:00:04.454Z,45.97
2022-12-23T22:03:07.102Z,48.35
2022-12-23T22:06:19.296Z,46.80
2022-12-23T22:09:21.726Z,49.37
2022-12-23T22:12:24.200Z,44.88
2022-12-23T22:15:26.655Z,56.42
2022-12-23T22:18:29.533Z,60.25
2022-12-23T22:21:32.639Z,60.37
2022-12-23T22:24:35.131Z,58.85
2022-12-23T22:27:37.585Z,64.90
2022-12-23T22:30:40.248Z,63.47
2022-12-23T22:33:42.739Z,71.37
2022-12-23T22:36:45.747Z,68.85
2022-12-23T22:39:48.605Z,72.05
2022-12-23T22:42:51.038Z,75.07
2022-12-23T22:46:01.551Z,70.40
2022-12-23T22:49:04.239Z,78.10
2022-12-23T22:52:06.753Z,97.03
2022-12-23T22:55:09.475Z,92.03
2022-12-23T22:58:11.925Z,77.83
2022-12-23T23:01:23.451Z,96.72
2022-12-23T23:04:26.043Z,111.72
2022-12-23T23:07:28.531Z,76.63
2022-12-23T23:10:33.304Z,75.07
2022-12-23T23:13:36.291Z,78.25
2022-12-23T23:16:39.519Z,75.18
2022-12-23T23:19:42.104Z,66.53
2022-12-23T23:22:44.677Z,80.47
2022-12-23T23:25:47.832Z,67.00
2022-12-23T23:28:50.363Z,65.25
2022-12-23T23:31:53.171Z,75.73
2022-12-23T23:34:56.306Z,72.07
2022-12-23T23:37:58.801Z,54.15
2022-12-23T23:41:01.845Z,55.53
2022-12-23T23:44:04.565Z,54.07
2022-12-23T23:47:07.055Z,47.10
2022-12-23T23:50:09.662Z,41.83
2022-12-23T23:53:13.045Z,44.88
2022-12-23T23:56:20.474Z,40.13
2022-12-23T23:59:27.457Z,44.47
